KANW/ANW METAR and TAF weather

Enter ICAO airport designator
Station Type Date Time Source
KANW METAR 2021/01/16 03:35 UTC NOAA

KANW 160335Z AUTO 31005KT 10SM CLR M06/M09 A2999 RMK AO2 T10601090


Station Type Date Time Source
KANW Decoded METAR 2021/01/16 03:35 UTC NOAA

Ainsworth Municipal, NE, United States (KANW) 42-35N 100-00W
Jan 15, 2021 - 10:35 PM EST / 2021.01.16 0335 UTC
Wind: from the NW (310 degrees) at 6 MPH (5 KT):0
Visibility: 10 mile(s):0
Sky conditions: clear
Temperature: 21.2 F (-6.0 C)
Windchill: 14 F (-10 C):1
Dew Point: 15.8 F (-9.0 C)
Relative Humidity: 79%
Pressure (altimeter): 29.99 in. Hg (1015 hPa)
ob: KANW 160335Z AUTO 31005KT 10SM CLR M06/M09 A2999 RMK AO2 T10601090
cycle: 3

Station Type Date Time Source
KANW TAF UTC NOAA

Error!

Example: see airport list